Time;durP1;ratioP1;P1;durP2;ratioP2;P2;SDS_P1;SDS_P2;PMS_P1;PMS_P2;Temp;Humidity;BMP_temperature;BMP_pressure;BME280_temperature;BME280_humidity;BME280_pressure;Samples;Min_cycle;Max_cycle;Signal;HPM_P1;HPM_P2
2021/03/14 00:02:26;;;;;;;4.23;1.47;;;8.30;82.00;;;;;;5013038;28;20234;-85
2021/03/14 00:05:14;;;;;;;1.23;1.13;;;8.30;82.10;;;;;;5029610;28;20222;-82
2021/03/14 00:07:50;;;;;;;1.23;1.10;;;8.20;82.20;;;;;;5042045;28;20203;-82
2021/03/14 00:10:20;;;;;;;1.10;1.00;;;8.10;82.50;;;;;;5024083;28;20214;-83
2021/03/14 00:12:47;;;;;;;1.57;1.17;;;8.00;82.70;;;;;;5028089;28;20229;-85
2021/03/14 00:15:27;;;;;;;1.40;1.20;;;8.00;82.90;;;;;;5024323;28;20215;-83
2021/03/14 00:18:08;;;;;;;2.67;1.20;;;7.80;83.20;;;;;;5015479;28;20232;-85
2021/03/14 00:20:43;;;;;;;2.00;1.63;;;7.80;83.40;;;;;;5038159;28;20258;-86
2021/03/14 00:23:12;;;;;;;1.80;1.30;;;7.80;83.60;;;;;;5027478;28;20199;-84
2021/03/14 00:25:43;;;;;;;3.40;1.40;;;7.70;83.80;;;;;;5020727;28;20696;-83
2021/03/14 00:28:16;;;;;;;1.73;1.60;;;7.60;84.10;;;;;;5024057;28;20209;-83
2021/03/14 00:30:47;;;;;;;2.47;1.50;;;7.60;84.30;;;;;;5024045;28;20182;-84
2021/03/14 00:33:57;;;;;;;2.50;1.30;;;7.50;84.60;;;;;;5041966;28;20229;-83
2021/03/14 00:36:25;;;;;;;2.57;2.10;;;7.60;84.70;;;;;;4982118;28;20772;-85
2021/03/14 00:38:55;;;;;;;3.00;1.70;;;7.50;84.90;;;;;;4983576;28;20238;-83
2021/03/14 00:41:23;;;;;;;1.93;1.67;;;7.40;85.00;;;;;;4970078;28;20282;-86
2021/03/14 00:43:53;;;;;;;1.57;1.40;;;7.30;85.40;;;;;;4998850;28;20267;-84
2021/03/14 00:46:24;;;;;;;2.53;1.60;;;7.20;85.70;;;;;;4995157;28;20278;-83
2021/03/14 00:49:00;;;;;;;2.50;1.70;;;7.10;85.90;;;;;;4998267;28;20223;-84
2021/03/14 00:51:30;;;;;;;1.43;1.33;;;7.10;86.00;;;;;;4985599;28;20618;-82
2021/03/14 00:54:01;;;;;;;2.40;1.80;;;7.00;86.20;;;;;;4998924;28;20219;-83
2021/03/14 00:56:30;;;;;;;2.57;1.90;;;6.90;86.40;;;;;;5002347;28;20199;-84
2021/03/14 00:59:05;;;;;;;2.10;1.60;;;6.80;86.60;;;;;;4982924;28;20224;-85
2021/03/14 01:01:44;;;;;;;2.07;1.70;;;6.70;86.70;;;;;;4989115;28;20229;-85
2021/03/14 01:04:17;;;;;;;3.10;1.60;;;6.80;87.20;;;;;;4974504;28;20206;-86
2021/03/14 01:06:45;;;;;;;1.40;1.30;;;6.80;87.00;;;;;;4987070;28;20215;-83
2021/03/14 01:09:16;;;;;;;2.00;1.57;;;6.80;87.00;;;;;;4972488;28;20236;-85
2021/03/14 01:11:58;;;;;;;2.30;1.53;;;6.70;87.00;;;;;;4964160;28;20233;-84
2021/03/14 01:14:28;;;;;;;3.13;1.80;;;6.70;87.30;;;;;;5018101;28;20208;-84
2021/03/14 01:16:58;;;;;;;2.53;1.50;;;6.80;87.50;;;;;;5020605;28;20191;-84
2021/03/14 01:19:27;;;;;;;3.27;1.83;;;6.80;87.40;;;;;;5008243;28;20533;-81
2021/03/14 01:22:02;;;;;;;1.93;1.60;;;6.80;87.30;;;;;;5036187;28;20214;-84
2021/03/14 01:24:31;;;;;;;3.47;1.90;;;6.80;87.40;;;;;;5050086;22;20224;-83
2021/03/14 01:27:00;;;;;;;2.30;1.70;;;6.80;87.40;;;;;;5035915;28;20195;-85
2021/03/14 01:29:28;;;;;;;1.80;1.70;;;6.80;87.40;;;;;;5033470;28;20219;-85
2021/03/14 01:32:07;;;;;;;3.20;1.83;;;7.00;87.50;;;;;;5034826;28;20272;-84
2021/03/14 01:34:35;;;;;;;2.03;1.70;;;6.90;87.40;;;;;;5033098;28;20187;-84
2021/03/14 01:37:04;;;;;;;2.43;1.90;;;6.80;87.40;;;;;;5034974;28;20209;-83
2021/03/14 01:39:33;;;;;;;2.00;1.77;;;6.80;87.40;;;;;;5022140;28;20224;-85
2021/03/14 01:42:00;;;;;;;2.03;1.80;;;6.80;87.50;;;;;;5032126;28;20272;-86
2021/03/14 01:44:28;;;;;;;3.10;2.00;;;6.70;87.70;;;;;;5032511;28;20276;-83
2021/03/14 01:46:58;;;;;;;2.87;2.03;;;6.70;87.80;;;;;;5033796;28;20198;-84
2021/03/14 01:49:29;;;;;;;2.27;2.00;;;6.50;87.60;;;;;;5033763;28;20215;-83
2021/03/14 01:52:03;;;;;;;2.73;2.07;;;6.30;88.30;;;;;;5017848;28;20210;-88
2021/03/14 01:54:32;;;;;;;3.20;2.30;;;6.20;88.70;;;;;;5020885;28;20274;-83
2021/03/14 01:57:04;;;;;;;2.73;1.87;;;6.20;89.20;;;;;;5037861;28;20219;-83
2021/03/14 01:59:32;;;;;;;3.40;2.83;;;6.10;89.20;;;;;;5019914;28;20228;-83
2021/03/14 02:02:01;;;;;;;2.93;2.30;;;6.10;89.30;;;;;;5002647;28;20539;-84
2021/03/14 02:04:29;;;;;;;2.30;2.00;;;6.00;89.30;;;;;;5022938;28;20230;-83
2021/03/14 02:07:00;;;;;;;3.43;2.10;;;6.00;89.60;;;;;;5025282;28;20402;-84
2021/03/14 02:09:32;;;;;;;3.23;1.90;;;5.90;89.70;;;;;;5015880;28;20211;-83
2021/03/14 02:12:08;;;;;;;2.80;2.10;;;6.00;89.70;;;;;;5010407;28;20613;-85
2021/03/14 02:14:37;;;;;;;2.70;2.30;;;5.90;89.50;;;;;;5018124;28;20257;-82
2021/03/14 02:17:09;;;;;;;3.67;2.20;;;5.90;89.60;;;;;;5016597;28;20257;-83
2021/03/14 02:19:41;;;;;;;4.10;2.40;;;5.90;89.50;;;;;;5032163;28;20206;-84
2021/03/14 02:22:09;;;;;;;1.93;1.83;;;5.90;89.20;;;;;;5015542;28;20303;-84
2021/03/14 02:24:45;;;;;;;3.90;1.93;;;5.80;89.20;;;;;;5022509;28;20211;-83
2021/03/14 02:27:14;;;;;;;2.40;2.20;;;5.80;89.30;;;;;;5020112;28;20225;-84
2021/03/14 02:29:45;;;;;;;2.90;1.90;;;5.80;89.20;;;;;;5009527;28;20220;-83
2021/03/14 02:32:15;;;;;;;3.27;2.13;;;5.80;89.30;;;;;;5014499;28;20218;-82
2021/03/14 02:34:49;;;;;;;4.57;2.30;;;5.80;89.20;;;;;;5033064;28;20179;-84
2021/03/14 02:37:18;;;;;;;2.47;1.97;;;5.80;89.10;;;;;;5030862;28;20199;-83
2021/03/14 02:39:47;;;;;;;6.37;2.17;;;5.70;88.90;;;;;;5019307;28;20195;-84
2021/03/14 02:42:21;;;;;;;2.47;2.00;;;5.70;89.10;;;;;;5032953;28;20247;-84
2021/03/14 02:44:52;;;;;;;3.83;2.50;;;5.70;89.10;;;;;;5025291;28;20203;-83
2021/03/14 02:47:24;;;;;;;2.80;1.80;;;5.70;88.90;;;;;;5029454;28;20194;-83
2021/03/14 02:50:07;;;;;;;2.77;2.20;;;5.70;88.80;;;;;;5038214;28;20200;-85
2021/03/14 02:52:37;;;;;;;2.53;1.90;;;5.60;88.60;;;;;;5035270;28;20234;-84
2021/03/14 02:55:07;;;;;;;3.17;1.90;;;5.60;88.90;;;;;;5033795;28;20210;-84
2021/03/14 02:57:38;;;;;;;2.60;2.00;;;5.60;88.90;;;;;;5018832;28;20207;-84
2021/03/14 03:00:09;;;;;;;3.07;1.90;;;5.50;89.00;;;;;;5033853;28;20211;-82
2021/03/14 03:02:38;;;;;;;3.13;2.00;;;5.40;89.10;;;;;;5032408;28;20195;-84
2021/03/14 03:05:08;;;;;;;3.37;1.80;;;5.40;89.00;;;;;;5063433;22;20388;-83
2021/03/14 03:07:36;;;;;;;3.23;2.03;;;5.40;89.00;;;;;;5034307;28;20280;-83
2021/03/14 03:10:06;;;;;;;2.70;2.10;;;5.30;89.10;;;;;;5022908;28;20207;-83
2021/03/14 03:12:35;;;;;;;4.60;2.03;;;5.20;89.00;;;;;;5017887;28;20289;-82
2021/03/14 03:15:13;;;;;;;2.20;2.00;;;5.20;89.30;;;;;;5035281;22;20358;-85
2021/03/14 03:17:44;;;;;;;2.40;2.00;;;5.10;89.70;;;;;;4992756;28;20665;-85
2021/03/14 03:20:27;;;;;;;2.57;1.90;;;5.10;89.90;;;;;;5003875;28;20219;-84
2021/03/14 03:23:04;;;;;;;4.13;2.03;;;5.00;89.90;;;;;;5014840;28;20229;-85
2021/03/14 03:25:35;;;;;;;4.20;2.50;;;5.00;90.00;;;;;;4996860;28;20681;-84
2021/03/14 03:28:04;;;;;;;4.30;2.67;;;5.10;90.00;;;;;;5000589;28;20226;-83
2021/03/14 03:30:34;;;;;;;2.60;2.03;;;5.10;89.80;;;;;;4974519;28;20204;-82
2021/03/14 03:33:02;;;;;;;2.80;2.20;;;5.00;89.50;;;;;;4998445;28;20208;-83
2021/03/14 03:35:31;;;;;;;5.80;2.90;;;5.10;89.60;;;;;;4997157;28;20199;-84
2021/03/14 03:38:01;;;;;;;4.47;2.63;;;5.10;89.70;;;;;;4990520;28;20250;-81
2021/03/14 03:40:39;;;;;;;6.47;2.50;;;5.00;90.00;;;;;;4992370;28;20220;-84
2021/03/14 03:43:16;;;;;;;3.50;2.60;;;5.00;90.10;;;;;;5009256;28;20246;-82
2021/03/14 03:45:48;;;;;;;4.37;2.63;;;5.00;90.10;;;;;;5014993;28;20249;-83
2021/03/14 03:48:22;;;;;;;4.07;2.33;;;5.00;90.20;;;;;;5011170;28;20402;-86
2021/03/14 03:50:56;;;;;;;3.90;2.23;;;5.00;90.20;;;;;;4994100;28;20221;-81
2021/03/14 03:53:27;;;;;;;4.40;2.73;;;4.90;90.30;;;;;;4998556;28;20257;-81
2021/03/14 03:56:00;;;;;;;4.20;2.60;;;4.90;90.50;;;;;;5005656;28;20207;-83
2021/03/14 03:58:30;;;;;;;4.43;2.77;;;4.90;90.70;;;;;;4999628;28;20204;-84
2021/03/14 04:01:01;;;;;;;3.47;3.17;;;4.80;90.80;;;;;;4989448;28;20624;-84
2021/03/14 04:03:35;;;;;;;5.27;2.67;;;4.80;91.00;;;;;;4997428;28;20485;-83
2021/03/14 04:06:05;;;;;;;2.90;2.47;;;4.80;91.10;;;;;;4996797;28;20223;-82
2021/03/14 04:08:34;;;;;;;3.67;3.00;;;4.90;91.30;;;;;;5002000;28;20237;-83
2021/03/14 04:11:06;;;;;;;3.10;2.50;;;4.80;91.10;;;;;;4987122;28;20232;-84
2021/03/14 04:13:37;;;;;;;2.67;2.47;;;4.80;91.00;;;;;;5004026;28;20220;-81
2021/03/14 04:16:11;;;;;;;3.90;2.67;;;4.80;91.00;;;;;;5012110;28;20228;-83
2021/03/14 04:18:41;;;;;;;4.53;2.50;;;4.80;90.90;;;;;;5003602;28;20203;-82
2021/03/14 04:21:14;;;;;;;4.27;2.50;;;4.80;90.90;;;;;;4996674;28;20278;-83
2021/03/14 04:23:44;;;;;;;2.90;2.30;;;4.80;90.90;;;;;;5000256;28;20426;-83
2021/03/14 04:26:15;;;;;;;3.87;2.50;;;4.70;90.90;;;;;;4997001;28;20220;-82
2021/03/14 04:28:45;;;;;;;4.67;3.10;;;4.70;90.80;;;;;;4994979;28;20296;-83
2021/03/14 04:31:15;;;;;;;3.70;2.50;;;4.80;90.80;;;;;;4993260;28;20255;-84
2021/03/14 04:33:45;;;;;;;3.80;2.60;;;4.80;90.60;;;;;;4993246;28;20210;-83
2021/03/14 04:36:16;;;;;;;2.97;2.40;;;4.80;90.50;;;;;;4990591;28;20184;-83
2021/03/14 04:38:47;;;;;;;2.70;2.47;;;4.80;90.60;;;;;;5013194;28;20238;-83
2021/03/14 04:41:17;;;;;;;3.60;2.80;;;4.70;90.50;;;;;;4996686;28;20300;-84
2021/03/14 04:43:49;;;;;;;3.73;3.00;;;4.70;90.40;;;;;;4980080;28;20200;-84
2021/03/14 04:46:18;;;;;;;4.50;2.40;;;4.70;90.40;;;;;;5000471;28;20942;-83
2021/03/14 04:48:47;;;;;;;4.77;2.53;;;4.70;90.40;;;;;;4998738;28;20199;-83
2021/03/14 04:51:35;;;;;;;4.40;2.80;;;4.60;90.30;;;;;;5002246;28;20818;-83
2021/03/14 04:54:05;;;;;;;4.40;2.30;;;4.60;90.40;;;;;;5007762;28;20206;-81
2021/03/14 04:56:34;;;;;;;4.47;2.60;;;4.70;90.40;;;;;;5001109;28;20286;-84
2021/03/14 04:59:03;;;;;;;3.57;2.60;;;4.70;90.40;;;;;;5006147;28;20252;-83
2021/03/14 05:01:35;;;;;;;4.43;2.73;;;4.70;90.20;;;;;;4996659;28;20203;-83
2021/03/14 05:04:04;;;;;;;4.00;2.77;;;4.60;90.20;;;;;;5003571;28;20211;-83
2021/03/14 05:06:33;;;;;;;4.13;2.77;;;4.50;90.50;;;;;;5014023;28;20244;-82
2021/03/14 05:09:03;;;;;;;3.37;2.93;;;4.40;90.60;;;;;;5012761;28;20611;-84
2021/03/14 05:11:31;;;;;;;3.30;2.70;;;4.50;90.60;;;;;;5001694;28;20203;-84
2021/03/14 05:14:00;;;;;;;3.13;2.37;;;4.70;90.70;;;;;;4991662;28;20216;-83
2021/03/14 05:16:28;;;;;;;3.40;2.53;;;4.60;90.40;;;;;;5015179;28;20210;-84
2021/03/14 05:19:00;;;;;;;3.27;2.90;;;4.60;90.50;;;;;;4991388;28;20645;-82
2021/03/14 05:21:28;;;;;;;3.90;2.90;;;4.60;90.50;;;;;;4994679;28;20474;-82
2021/03/14 05:23:58;;;;;;;4.47;3.20;;;4.50;90.50;;;;;;4997145;28;20212;-82
2021/03/14 05:26:27;;;;;;;3.73;2.87;;;4.50;90.60;;;;;;5006941;28;20334;-83
2021/03/14 05:28:56;;;;;;;5.60;2.77;;;4.50;90.70;;;;;;4999189;28;20504;-83
2021/03/14 05:31:31;;;;;;;3.50;2.73;;;4.40;90.60;;;;;;4995639;28;20204;-83
2021/03/14 05:34:04;;;;;;;3.70;3.27;;;4.50;90.80;;;;;;4996785;28;20238;-83
2021/03/14 05:36:33;;;;;;;4.57;3.27;;;4.50;90.90;;;;;;4994399;28;20195;-82
2021/03/14 05:39:05;;;;;;;4.37;3.00;;;4.40;90.90;;;;;;4991442;28;20214;-83
2021/03/14 05:41:34;;;;;;;7.43;3.77;;;4.30;91.20;;;;;;4996711;28;20709;-83
2021/03/14 05:44:03;;;;;;;6.10;3.20;;;4.40;91.30;;;;;;4997146;28;20222;-84
2021/03/14 05:46:31;;;;;;;5.77;3.90;;;4.40;91.40;;;;;;5001049;28;20258;-83
2021/03/14 05:49:01;;;;;;;5.33;3.70;;;4.40;91.50;;;;;;4998373;28;20237;-83
2021/03/14 05:51:30;;;;;;;3.40;3.10;;;4.40;91.50;;;;;;5001989;28;20210;-82
2021/03/14 05:53:59;;;;;;;4.23;3.50;;;4.40;91.40;;;;;;5003430;28;20203;-82
2021/03/14 05:56:28;;;;;;;3.50;3.20;;;4.50;91.50;;;;;;5007912;28;20293;-84
2021/03/14 05:59:01;;;;;;;3.80;3.47;;;4.40;91.50;;;;;;5000760;28;20243;-83
2021/03/14 06:01:30;;;;;;;6.47;3.60;;;4.40;91.60;;;;;;5003588;28;20536;-84
2021/03/14 06:03:59;;;;;;;7.00;3.47;;;4.40;91.60;;;;;;5005098;28;20210;-82
2021/03/14 06:06:28;;;;;;;7.40;3.57;;;4.40;91.60;;;;;;5019936;28;20230;-82
2021/03/14 06:08:56;;;;;;;4.77;3.87;;;4.50;91.70;;;;;;5018448;28;20210;-83
2021/03/14 06:11:24;;;;;;;5.67;3.67;;;4.50;91.40;;;;;;5006269;28;20206;-81
2021/03/14 06:13:52;;;;;;;4.27;3.37;;;4.60;91.40;;;;;;5013997;28;20206;-83
2021/03/14 06:16:19;;;;;;;4.97;3.83;;;4.60;91.40;;;;;;5017070;28;20414;-82
2021/03/14 06:18:51;;;;;;;4.07;3.50;;;4.70;91.40;;;;;;5017206;28;20204;-86
2021/03/14 06:21:22;;;;;;;5.10;3.23;;;4.70;91.10;;;;;;5018580;28;20548;-84
2021/03/14 06:23:59;;;;;;;4.10;3.33;;;4.80;91.00;;;;;;4999567;28;20202;-82
2021/03/14 06:26:50;;;;;;;6.10;3.73;;;4.90;90.80;;;;;;5014689;28;20249;-83
2021/03/14 06:29:27;;;;;;;4.10;3.37;;;5.00;90.70;;;;;;4995430;28;20225;-84
2021/03/14 06:31:57;;;;;;;4.80;3.87;;;5.00;90.50;;;;;;4999334;28;20275;-82
2021/03/14 06:34:30;;;;;;;4.73;3.83;;;5.10;90.40;;;;;;5000363;28;20254;-83
2021/03/14 06:37:00;;;;;;;4.47;3.73;;;5.10;90.40;;;;;;5009159;28;20202;-83
2021/03/14 06:39:30;;;;;;;4.57;3.70;;;5.10;90.40;;;;;;5016074;28;20203;-84
2021/03/14 06:42:00;;;;;;;5.43;3.93;;;5.10;90.30;;;;;;5003815;28;20192;-83
2021/03/14 06:44:45;;;;;;;5.90;3.40;;;5.20;90.30;;;;;;5007785;28;20250;-84
2021/03/14 06:47:13;;;;;;;4.30;3.60;;;5.30;90.20;;;;;;4992051;28;20401;-83
2021/03/14 06:49:41;;;;;;;5.67;3.53;;;5.40;90.10;;;;;;5012848;28;20448;-83
2021/03/14 06:52:09;;;;;;;5.07;3.70;;;5.50;89.80;;;;;;4988963;28;20200;-82
2021/03/14 06:54:40;;;;;;;4.30;3.40;;;5.70;89.20;;;;;;4999131;28;20202;-83
2021/03/14 06:57:12;;;;;;;3.97;3.20;;;5.80;89.00;;;;;;4995029;28;20199;-83
2021/03/14 06:59:43;;;;;;;3.40;3.10;;;5.80;88.30;;;;;;5001985;28;20204;-82
2021/03/14 07:02:12;;;;;;;5.70;3.63;;;5.80;88.20;;;;;;5004217;28;20573;-83
2021/03/14 07:04:47;;;;;;;5.30;3.53;;;5.90;88.10;;;;;;5013471;28;20200;-84
2021/03/14 07:07:31;;;;;;;4.70;3.40;;;6.00;88.30;;;;;;4994776;28;20355;-84
2021/03/14 07:10:04;;;;;;;4.27;3.50;;;5.80;88.10;;;;;;4995059;28;20206;-84
2021/03/14 07:12:33;;;;;;;4.73;3.30;;;5.90;87.90;;;;;;5006886;28;20188;-83
2021/03/14 07:15:11;;;;;;;5.27;3.67;;;6.00;87.90;;;;;;4999250;28;20200;-83
2021/03/14 07:17:41;;;;;;;4.90;3.50;;;6.10;87.70;;;;;;4977107;28;20302;-84
2021/03/14 07:20:13;;;;;;;4.50;3.30;;;6.20;86.90;;;;;;4998966;28;20555;-82
2021/03/14 07:22:42;;;;;;;3.43;3.07;;;6.30;86.50;;;;;;5001256;28;20220;-83
2021/03/14 07:25:24;;;;;;;5.10;3.43;;;6.40;86.20;;;;;;4994374;28;20215;-85
2021/03/14 07:27:54;;;;;;;4.27;3.17;;;6.50;86.00;;;;;;4988575;28;20418;-84
2021/03/14 07:30:24;;;;;;;5.77;3.10;;;6.40;85.60;;;;;;5004232;28;20250;-82
2021/03/14 07:32:53;;;;;;;3.37;3.07;;;6.70;85.20;;;;;;5002808;28;20206;-80
2021/03/14 07:35:24;;;;;;;3.50;3.13;;;6.70;85.00;;;;;;4992407;28;20207;-85
2021/03/14 07:37:54;;;;;;;3.77;3.23;;;6.80;84.70;;;;;;4978668;28;20210;-85
2021/03/14 07:40:24;;;;;;;3.27;2.67;;;6.90;84.70;;;;;;4997661;28;20217;-84
2021/03/14 07:43:00;;;;;;;2.87;2.57;;;6.90;84.40;;;;;;4986915;28;20293;-81
2021/03/14 07:45:32;;;;;;;5.30;2.70;;;6.90;84.40;;;;;;5008395;28;20724;-83
2021/03/14 07:48:01;;;;;;;4.33;2.57;;;7.00;84.20;;;;;;5010236;28;20222;-83
2021/03/14 07:50:33;;;;;;;3.77;2.60;;;7.20;84.10;;;;;;5010835;28;20241;-83
2021/03/14 07:53:06;;;;;;;5.50;2.60;;;7.30;83.50;;;;;;5003022;28;20202;-84
2021/03/14 07:55:36;;;;;;;3.10;2.53;;;7.40;83.30;;;;;;4997304;28;20216;-85
2021/03/14 07:58:13;;;;;;;3.70;2.77;;;7.50;83.00;;;;;;4998292;28;20221;-83
2021/03/14 08:00:56;;;;;;;4.00;2.33;;;7.50;82.80;;;;;;5009171;28;20210;-85
2021/03/14 08:03:37;;;;;;;2.40;2.20;;;7.60;82.60;;;;;;4992096;28;20253;-83
2021/03/14 08:06:08;;;;;;;4.20;2.20;;;7.60;81.90;;;;;;5011222;28;20274;-85
2021/03/14 08:08:47;;;;;;;3.90;2.40;;;7.70;82.10;;;;;;5014982;28;20207;-83
2021/03/14 08:11:32;;;;;;;5.13;2.60;;;7.70;82.10;;;;;;5014574;28;20232;-82
2021/03/14 08:14:02;;;;;;;5.40;2.97;;;7.80;82.00;;;;;;4976925;28;20210;-83
2021/03/14 08:16:31;;;;;;;2.80;2.53;;;7.80;81.80;;;;;;5002149;28;20219;-83
2021/03/14 08:19:12;;;;;;;2.83;2.60;;;7.90;81.70;;;;;;4980035;28;20342;-84
2021/03/14 08:21:41;;;;;;;3.93;2.70;;;7.90;81.50;;;;;;5000992;28;20205;-85
2021/03/14 08:24:16;;;;;;;4.03;2.30;;;8.00;81.30;;;;;;4997959;28;20520;-84
2021/03/14 08:26:46;;;;;;;2.57;2.33;;;8.10;80.90;;;;;;5004810;28;20219;-84
2021/03/14 08:29:14;;;;;;;4.70;2.53;;;8.20;80.70;;;;;;5017712;28;20200;-84
2021/03/14 08:31:45;;;;;;;3.20;2.60;;;8.30;80.60;;;;;;5019104;28;20299;-84
2021/03/14 08:34:19;;;;;;;4.97;2.70;;;8.20;80.30;;;;;;4981835;28;20275;-84
2021/03/14 08:36:49;;;;;;;6.03;2.40;;;8.50;80.50;;;;;;4999891;28;20207;-83
2021/03/14 08:39:24;;;;;;;4.57;2.13;;;8.50;80.00;;;;;;4997697;28;20603;-84
2021/03/14 08:41:55;;;;;;;3.80;2.30;;;8.50;79.40;;;;;;5001625;28;20230;-81
2021/03/14 08:44:42;;;;;;;3.33;2.60;;;8.70;79.60;;;;;;4999484;28;20478;-83
2021/03/14 08:47:13;;;;;;;2.63;2.20;;;8.60;79.40;;;;;;5004004;28;20585;-86
2021/03/14 08:49:53;;;;;;;3.93;2.60;;;8.60;79.00;;;;;;5011348;28;20208;-84
2021/03/14 08:55:17;;;;;;;3.27;2.43;;;8.60;79.20;;;;;;5015318;28;20198;-85
2021/03/14 08:57:51;;;;;;;4.30;2.47;;;8.70;78.80;;;;;;5020875;28;20195;-83
2021/03/14 09:00:39;;;;;;;5.57;2.80;;;8.70;78.70;;;;;;5019098;28;20258;-86
2021/03/14 09:03:12;;;;;;;4.03;2.63;;;8.60;78.40;;;;;;5005773;28;20201;-84
2021/03/14 09:06:20;;;;;;;6.50;2.60;;;8.80;78.60;;;;;;5006273;28;20203;-85
2021/03/14 09:08:57;;;;;;;5.20;2.47;;;8.90;78.70;;;;;;4981238;28;20306;-84
2021/03/14 09:11:44;;;;;;;3.67;2.53;;;9.00;78.80;;;;;;4999663;28;20204;-83
2021/03/14 09:14:34;;;;;;;3.63;2.43;;;9.10;78.20;;;;;;4999425;28;20199;-86
2021/03/14 09:17:08;;;;;;;4.37;2.63;;;9.00;77.90;;;;;;5003881;28;20534;-85
2021/03/14 09:19:45;;;;;;;5.37;2.40;;;9.00;78.10;;;;;;4985314;28;20279;-85
2021/03/14 09:22:18;;;;;;;3.10;2.50;;;9.20;77.90;;;;;;5006918;28;20280;-85
2021/03/14 09:25:08;;;;;;;3.50;2.30;;;9.30;78.10;;;;;;5011054;28;20200;-84
2021/03/14 09:27:37;;;;;;;4.10;2.37;;;9.40;77.60;;;;;;5008710;28;20238;-83
2021/03/14 09:30:14;;;;;;;2.53;2.20;;;9.40;77.30;;;;;;5011726;28;20204;-84
2021/03/14 09:32:50;;;;;;;3.00;2.13;;;9.60;77.20;;;;;;5014238;28;20225;-84
2021/03/14 09:35:25;;;;;;;2.10;1.90;;;9.70;77.00;;;;;;5002798;28;20204;-84
2021/03/14 09:37:57;;;;;;;2.70;2.10;;;10.00;76.30;;;;;;5056594;22;20230;-85
2021/03/14 09:40:35;;;;;;;4.37;2.03;;;10.10;75.30;;;;;;5035338;28;20202;-86
2021/03/14 09:43:16;;;;;;;3.03;1.73;;;10.10;74.80;;;;;;5038456;28;20208;-85
2021/03/14 09:45:48;;;;;;;2.13;1.70;;;9.90;74.50;;;;;;5033770;28;20442;-85
2021/03/14 09:48:19;;;;;;;3.47;2.23;;;10.00;74.00;;;;;;5007942;28;20203;-83
2021/03/14 09:54:09;;;;;;;2.80;2.10;;;10.00;73.10;;;;;;5014348;28;20260;-83
2021/03/14 09:56:39;;;;;;;2.80;2.13;;;10.00;72.70;;;;;;5005549;28;20187;-83
2021/03/14 09:59:07;;;;;;;2.97;1.80;;;10.00;72.30;;;;;;5023577;28;20362;-83
2021/03/14 10:01:40;;;;;;;1.70;1.53;;;9.80;72.30;;;;;;5020553;28;20232;-84
2021/03/14 10:04:14;;;;;;;3.87;2.00;;;9.70;72.60;;;;;;5021454;28;20213;-83
2021/03/14 10:06:44;;;;;;;1.87;1.63;;;9.70;72.80;;;;;;5029160;28;20222;-83
2021/03/14 10:09:24;;;;;;;2.70;1.70;;;9.70;72.10;;;;;;5034165;28;20277;-86
2021/03/14 10:12:07;;;;;;;3.70;1.70;;;9.80;72.10;;;;;;5010202;28;20288;-84
2021/03/14 10:14:38;;;;;;;3.77;2.17;;;9.80;72.30;;;;;;5028804;28;20800;-86
2021/03/14 10:17:11;;;;;;;2.93;1.77;;;9.80;72.20;;;;;;5020532;28;20289;-84
2021/03/14 10:19:41;;;;;;;4.97;2.27;;;9.70;72.30;;;;;;5017536;28;20256;-84
2021/03/14 10:22:12;;;;;;;1.80;1.70;;;9.80;72.40;;;;;;5000839;28;20229;-86
2021/03/14 10:24:45;;;;;;;2.73;2.13;;;9.90;72.20;;;;;;5018742;28;20742;-83
2021/03/14 10:27:22;;;;;;;2.67;2.10;;;9.90;72.60;;;;;;5019571;28;20225;-84
2021/03/14 10:29:56;;;;;;;3.10;2.10;;;9.90;73.30;;;;;;4997191;28;20217;-85
2021/03/14 10:32:29;;;;;;;3.50;2.10;;;9.80;73.70;;;;;;4998980;28;20280;-84
2021/03/14 10:35:01;;;;;;;3.83;2.13;;;9.80;73.30;;;;;;5019553;28;20211;-83
2021/03/14 10:37:31;;;;;;;4.10;2.33;;;9.80;73.40;;;;;;5032826;28;20223;-86
2021/03/14 10:40:06;;;;;;;2.80;1.93;;;10.00;73.90;;;;;;5028741;28;20196;-84
2021/03/14 10:42:39;;;;;;;2.27;1.90;;;10.00;74.20;;;;;;5022501;28;20207;-85
2021/03/14 10:45:15;;;;;;;3.67;2.20;;;10.00;73.40;;;;;;5010104;28;20813;-83
2021/03/14 10:47:57;;;;;;;8.17;2.17;;;10.00;73.70;;;;;;5036804;28;20553;-84
2021/03/14 10:50:32;;;;;;;3.33;2.40;;;10.10;74.20;;;;;;5008225;28;20213;-84
2021/03/14 10:53:12;;;;;;;3.10;2.47;;;10.00;74.20;;;;;;5031278;28;20214;-83
2021/03/14 10:56:06;;;;;;;2.57;2.33;;;9.90;74.30;;;;;;5027036;28;20685;-83
2021/03/14 10:58:41;;;;;;;6.27;2.70;;;9.90;74.80;;;;;;5028634;28;20199;-82
2021/03/14 11:01:15;;;;;;;3.13;2.60;;;9.90;74.70;;;;;;5020500;28;20187;-83
2021/03/14 11:03:46;;;;;;;5.60;2.87;;;10.00;74.80;;;;;;5030451;28;20538;-83
2021/03/14 11:06:16;;;;;;;3.80;2.70;;;9.80;75.10;;;;;;5030064;28;20236;-85
2021/03/14 11:08:53;;;;;;;4.13;2.50;;;9.80;75.20;;;;;;5020146;28;20210;-85
2021/03/14 11:11:36;;;;;;;3.43;2.70;;;9.60;75.40;;;;;;5021486;28;20217;-83
2021/03/14 11:14:28;;;;;;;3.20;2.50;;;9.70;75.50;;;;;;5023353;28;20260;-85
2021/03/14 11:17:08;;;;;;;2.50;2.30;;;9.60;75.40;;;;;;5027565;28;20218;-84
2021/03/14 11:19:39;;;;;;;3.47;2.70;;;9.60;75.70;;;;;;5029724;28;20205;-85
2021/03/14 11:22:07;;;;;;;6.67;3.13;;;9.60;75.00;;;;;;5023146;28;20762;-84
2021/03/14 11:24:38;;;;;;;3.30;3.00;;;9.90;75.30;;;;;;5028024;28;20193;-87
2021/03/14 11:27:08;;;;;;;5.53;3.23;;;9.80;75.30;;;;;;5029531;28;20580;-84
2021/03/14 11:29:39;;;;;;;4.83;3.00;;;10.00;74.40;;;;;;5030783;28;20310;-83
2021/03/14 11:32:11;;;;;;;3.93;3.20;;;10.10;74.70;;;;;;5038540;28;20176;-84
2021/03/14 11:34:42;;;;;;;4.73;3.40;;;10.10;75.10;;;;;;5038906;28;20217;-84
2021/03/14 11:37:12;;;;;;;5.87;3.30;;;10.30;75.50;;;;;;5037322;28;20189;-84
2021/03/14 11:39:40;;;;;;;3.47;2.83;;;10.30;75.60;;;;;;5035147;28;20266;-86
2021/03/14 11:42:10;;;;;;;3.23;2.93;;;10.20;75.50;;;;;;5048172;28;20197;-85
2021/03/14 11:44:42;;;;;;;3.30;3.00;;;10.30;75.60;;;;;;5043049;28;20277;-84
2021/03/14 11:47:10;;;;;;;3.53;3.17;;;10.00;75.40;;;;;;5040096;28;20290;-85
2021/03/14 11:49:39;;;;;;;3.97;3.00;;;10.00;75.90;;;;;;5044452;28;20197;-85
2021/03/14 11:52:08;;;;;;;3.20;2.90;;;9.90;75.40;;;;;;5020065;28;20193;-83
2021/03/14 11:54:39;;;;;;;2.63;2.43;;;9.80;75.30;;;;;;5039122;28;20217;-84
2021/03/14 11:57:08;;;;;;;2.83;2.63;;;9.70;75.20;;;;;;5044239;28;20195;-85
2021/03/14 11:59:37;;;;;;;4.17;2.93;;;9.60;75.30;;;;;;5026326;28;20790;-86
2021/03/14 12:02:06;;;;;;;4.20;2.70;;;9.50;75.60;;;;;;5043203;28;20433;-85
2021/03/14 12:04:49;;;;;;;4.00;2.70;;;9.50;75.20;;;;;;5023041;28;20203;-82
2021/03/14 12:07:24;;;;;;;4.20;2.73;;;9.40;75.00;;;;;;5005497;28;20273;-84
2021/03/14 12:09:53;;;;;;;2.93;2.57;;;9.20;75.30;;;;;;5024930;28;20199;-84
2021/03/14 12:12:21;;;;;;;2.93;2.63;;;9.00;75.40;;;;;;5029472;28;20754;-85
2021/03/14 12:14:50;;;;;;;5.30;2.60;;;9.00;75.30;;;;;;5027281;28;20199;-83
2021/03/14 12:17:19;;;;;;;3.03;2.70;;;9.00;75.40;;;;;;5023480;28;20215;-83
2021/03/14 12:19:49;;;;;;;3.27;2.20;;;9.10;75.70;;;;;;5012212;28;20263;-85
2021/03/14 12:22:18;;;;;;;4.53;2.30;;;9.20;75.40;;;;;;5023338;28;20206;-84
2021/03/14 12:24:49;;;;;;;2.93;2.40;;;9.30;75.40;;;;;;5034203;28;20229;-85
2021/03/14 12:27:18;;;;;;;2.93;2.60;;;9.50;75.10;;;;;;5044542;28;20229;-86
2021/03/14 12:29:47;;;;;;;3.60;2.50;;;9.50;75.00;;;;;;5035641;28;20225;-85
2021/03/14 12:32:18;;;;;;;3.33;2.80;;;9.60;75.10;;;;;;5031051;28;20417;-83
2021/03/14 12:34:47;;;;;;;3.50;3.10;;;9.60;75.40;;;;;;5025923;28;20188;-84
2021/03/14 12:37:16;;;;;;;3.87;2.70;;;9.50;75.40;;;;;;5014796;28;20199;-84
2021/03/14 12:39:48;;;;;;;2.67;2.47;;;9.40;75.70;;;;;;5026628;28;20211;-83
2021/03/14 12:42:19;;;;;;;3.97;3.17;;;9.30;75.60;;;;;;5026175;28;20200;-82
2021/03/14 12:44:48;;;;;;;3.77;2.90;;;9.30;75.70;;;;;;5029901;28;20217;-84
2021/03/14 12:47:16;;;;;;;3.83;2.90;;;9.30;75.60;;;;;;5026662;28;20241;-82
2021/03/14 12:49:45;;;;;;;3.27;2.47;;;9.20;76.00;;;;;;5012692;28;20203;-85
2021/03/14 12:52:15;;;;;;;3.47;2.60;;;9.20;75.80;;;;;;5035970;28;20226;-84
2021/03/14 12:54:46;;;;;;;4.00;2.60;;;9.10;76.00;;;;;;5037652;28;20692;-83
2021/03/14 12:57:34;;;;;;;4.17;3.27;;;8.90;76.50;;;;;;5040076;28;20204;-83
2021/03/14 13:00:16;;;;;;;4.77;3.80;;;8.70;77.50;;;;;;5035126;28;20198;-83
2021/03/14 13:02:46;;;;;;;5.30;3.83;;;8.60;78.90;;;;;;5043134;28;20195;-83
2021/03/14 13:05:20;;;;;;;4.67;4.03;;;8.40;79.80;;;;;;5031634;28;20341;-84
2021/03/14 13:08:13;;;;;;;5.10;4.03;;;8.30;80.50;;;;;;5022360;28;20512;-84
2021/03/14 13:10:50;;;;;;;5.57;4.10;;;8.20;81.00;;;;;;5034378;28;20206;-83
2021/03/14 13:13:20;;;;;;;4.50;3.93;;;8.20;81.50;;;;;;5014084;28;20221;-82
2021/03/14 13:15:48;;;;;;;6.43;4.57;;;8.10;82.10;;;;;;5033980;28;20195;-84
2021/03/14 13:18:22;;;;;;;4.60;4.10;;;8.00;82.30;;;;;;5030921;28;20273;-84
2021/03/14 13:21:00;;;;;;;4.90;4.10;;;8.00;82.80;;;;;;5027612;28;20389;-84
2021/03/14 13:23:33;;;;;;;5.50;3.83;;;7.80;82.90;;;;;;5021087;28;20202;-84
2021/03/14 13:26:01;;;;;;;4.53;4.00;;;7.70;83.40;;;;;;5021851;28;20238;-82
2021/03/14 13:28:31;;;;;;;5.53;4.30;;;7.60;83.70;;;;;;5015355;28;20642;-83
2021/03/14 13:31:01;;;;;;;5.67;4.60;;;7.60;84.40;;;;;;5025946;28;20252;-84